sensor_id;sensor_type;location;lat;lon;timestamp;P1;durP1;ratioP1;P2;durP2;ratioP2
23555;SDS011;11956;53.184;8.578;2023-05-10T00:02:16;29.20;;;23.75;;
23555;SDS011;11956;53.184;8.578;2023-05-10T00:05:17;28.35;;;22.95;;
23555;SDS011;11956;53.184;8.578;2023-05-10T00:08:18;29.27;;;23.50;;
23555;SDS011;11956;53.184;8.578;2023-05-10T00:11:19;27.17;;;21.25;;
23555;SDS011;11956;53.184;8.578;2023-05-10T00:14:20;26.55;;;21.45;;
23555;SDS011;11956;53.184;8.578;2023-05-10T00:17:21;32.50;;;24.63;;
23555;SDS011;11956;53.184;8.578;2023-05-10T00:20:21;28.48;;;22.08;;
23555;SDS011;11956;53.184;8.578;2023-05-10T00:23:22;29.80;;;23.85;;
23555;SDS011;11956;53.184;8.578;2023-05-10T00:26:23;32.00;;;24.35;;
23555;SDS011;11956;53.184;8.578;2023-05-10T00:29:26;26.80;;;21.80;;
23555;SDS011;11956;53.184;8.578;2023-05-10T00:32:28;27.30;;;22.33;;
23555;SDS011;11956;53.184;8.578;2023-05-10T00:35:29;28.92;;;23.42;;
23555;SDS011;11956;53.184;8.578;2023-05-10T00:38:30;27.55;;;22.40;;
23555;SDS011;11956;53.184;8.578;2023-05-10T00:41:31;30.23;;;23.27;;
23555;SDS011;11956;53.184;8.578;2023-05-10T00:44:34;27.92;;;22.25;;
23555;SDS011;11956;53.184;8.578;2023-05-10T00:47:35;28.23;;;22.58;;
23555;SDS011;11956;53.184;8.578;2023-05-10T00:50:36;27.20;;;21.75;;
23555;SDS011;11956;53.184;8.578;2023-05-10T00:53:37;30.17;;;23.95;;
23555;SDS011;11956;53.184;8.578;2023-05-10T00:56:38;29.63;;;23.52;;
23555;SDS011;11956;53.184;8.578;2023-05-10T00:59:40;28.15;;;23.23;;
23555;SDS011;11956;53.184;8.578;2023-05-10T01:02:41;27.52;;;22.65;;
23555;SDS011;11956;53.184;8.578;2023-05-10T01:05:42;26.98;;;22.15;;
23555;SDS011;11956;53.184;8.578;2023-05-10T01:08:43;35.05;;;25.83;;
23555;SDS011;11956;53.184;8.578;2023-05-10T01:11:44;27.33;;;22.13;;
23555;SDS011;11956;53.184;8.578;2023-05-10T01:14:45;31.60;;;24.58;;
23555;SDS011;11956;53.184;8.578;2023-05-10T01:17:46;28.52;;;23.10;;
23555;SDS011;11956;53.184;8.578;2023-05-10T01:20:48;34.50;;;23.88;;
23555;SDS011;11956;53.184;8.578;2023-05-10T01:34:23;23.93;;;19.33;;
23555;SDS011;11956;53.184;8.578;2023-05-10T01:37:40;27.45;;;21.23;;
23555;SDS011;11956;53.184;8.578;2023-05-10T01:45:20;24.75;;;19.15;;
23555;SDS011;11956;53.184;8.578;2023-05-10T01:48:27;22.95;;;18.23;;
23555;SDS011;11956;53.184;8.578;2023-05-10T01:51:31;23.17;;;17.15;;
23555;SDS011;11956;53.184;8.578;2023-05-10T01:54:43;24.70;;;18.52;;
23555;SDS011;11956;53.184;8.578;2023-05-10T01:58:01;25.13;;;18.50;;
23555;SDS011;11956;53.184;8.578;2023-05-10T02:01:15;19.63;;;15.65;;
23555;SDS011;11956;53.184;8.578;2023-05-10T02:04:18;16.77;;;14.98;;
23555;SDS011;11956;53.184;8.578;2023-05-10T02:07:21;17.00;;;14.07;;
23555;SDS011;11956;53.184;8.578;2023-05-10T02:10:24;20.73;;;15.27;;
23555;SDS011;11956;53.184;8.578;2023-05-10T02:13:26;22.33;;;16.50;;
23555;SDS011;11956;53.184;8.578;2023-05-10T02:16:30;21.92;;;14.82;;
23555;SDS011;11956;53.184;8.578;2023-05-10T02:19:32;15.82;;;13.45;;
23555;SDS011;11956;53.184;8.578;2023-05-10T02:22:37;14.27;;;12.55;;
23555;SDS011;11956;53.184;8.578;2023-05-10T02:25:38;20.08;;;15.27;;
23555;SDS011;11956;53.184;8.578;2023-05-10T02:28:40;18.60;;;15.32;;
23555;SDS011;11956;53.184;8.578;2023-05-10T02:31:43;17.23;;;14.65;;
23555;SDS011;11956;53.184;8.578;2023-05-10T02:34:44;13.57;;;12.13;;
23555;SDS011;11956;53.184;8.578;2023-05-10T02:37:51;16.48;;;13.10;;
23555;SDS011;11956;53.184;8.578;2023-05-10T02:40:53;19.58;;;15.02;;
23555;SDS011;11956;53.184;8.578;2023-05-10T02:43:57;17.40;;;14.07;;
23555;SDS011;11956;53.184;8.578;2023-05-10T02:47:02;12.88;;;11.43;;
23555;SDS011;11956;53.184;8.578;2023-05-10T02:50:04;16.27;;;12.27;;
23555;SDS011;11956;53.184;8.578;2023-05-10T02:53:15;14.50;;;11.95;;
23555;SDS011;11956;53.184;8.578;2023-05-10T02:56:28;13.35;;;11.20;;
23555;SDS011;11956;53.184;8.578;2023-05-10T02:59:33;15.48;;;11.25;;
23555;SDS011;11956;53.184;8.578;2023-05-10T03:02:34;13.00;;;8.77;;
23555;SDS011;11956;53.184;8.578;2023-05-10T03:05:36;13.13;;;9.27;;
23555;SDS011;11956;53.184;8.578;2023-05-10T03:08:37;12.07;;;9.93;;
23555;SDS011;11956;53.184;8.578;2023-05-10T03:11:45;14.27;;;10.10;;
23555;SDS011;11956;53.184;8.578;2023-05-10T03:15:03;14.02;;;10.88;;
23555;SDS011;11956;53.184;8.578;2023-05-10T03:18:27;11.47;;;9.23;;
23555;SDS011;11956;53.184;8.578;2023-05-10T03:21:36;15.93;;;10.98;;
23555;SDS011;11956;53.184;8.578;2023-05-10T03:24:42;14.27;;;10.85;;
23555;SDS011;11956;53.184;8.578;2023-05-10T03:27:45;13.25;;;10.15;;
23555;SDS011;11956;53.184;8.578;2023-05-10T03:30:46;14.57;;;9.82;;
23555;SDS011;11956;53.184;8.578;2023-05-10T03:33:48;15.18;;;12.88;;
23555;SDS011;11956;53.184;8.578;2023-05-10T03:36:56;17.30;;;12.07;;
23555;SDS011;11956;53.184;8.578;2023-05-10T03:39:58;14.48;;;12.30;;
23555;SDS011;11956;53.184;8.578;2023-05-10T03:42:59;20.00;;;12.10;;
23555;SDS011;11956;53.184;8.578;2023-05-10T03:46:04;12.38;;;10.20;;
23555;SDS011;11956;53.184;8.578;2023-05-10T03:49:05;17.45;;;12.38;;
23555;SDS011;11956;53.184;8.578;2023-05-10T03:52:06;17.45;;;12.93;;
23555;SDS011;11956;53.184;8.578;2023-05-10T03:55:08;17.02;;;12.18;;
23555;SDS011;11956;53.184;8.578;2023-05-10T03:58:12;15.13;;;11.80;;
23555;SDS011;11956;53.184;8.578;2023-05-10T04:01:13;17.75;;;12.20;;
23555;SDS011;11956;53.184;8.578;2023-05-10T04:04:14;17.00;;;13.35;;
23555;SDS011;11956;53.184;8.578;2023-05-10T04:07:18;13.88;;;11.48;;
23555;SDS011;11956;53.184;8.578;2023-05-10T04:10:19;14.18;;;11.38;;
23555;SDS011;11956;53.184;8.578;2023-05-10T04:13:21;18.38;;;11.77;;
23555;SDS011;11956;53.184;8.578;2023-05-10T04:16:22;17.70;;;11.90;;
23555;SDS011;11956;53.184;8.578;2023-05-10T04:19:23;17.15;;;12.65;;
23555;SDS011;11956;53.184;8.578;2023-05-10T04:22:24;13.82;;;10.65;;
23555;SDS011;11956;53.184;8.578;2023-05-10T04:25:25;17.85;;;12.98;;
23555;SDS011;11956;53.184;8.578;2023-05-10T04:28:25;14.23;;;11.80;;
23555;SDS011;11956;53.184;8.578;2023-05-10T04:31:27;18.02;;;12.73;;
23555;SDS011;11956;53.184;8.578;2023-05-10T04:34:28;13.73;;;10.73;;
23555;SDS011;11956;53.184;8.578;2023-05-10T04:37:29;17.80;;;11.55;;
23555;SDS011;11956;53.184;8.578;2023-05-10T04:40:30;13.73;;;10.48;;
23555;SDS011;11956;53.184;8.578;2023-05-10T04:43:31;23.83;;;14.27;;
23555;SDS011;11956;53.184;8.578;2023-05-10T04:46:32;16.08;;;13.88;;
23555;SDS011;11956;53.184;8.578;2023-05-10T04:49:33;19.25;;;15.07;;
23555;SDS011;11956;53.184;8.578;2023-05-10T04:52:34;16.60;;;14.48;;
23555;SDS011;11956;53.184;8.578;2023-05-10T04:55:35;15.95;;;13.40;;
23555;SDS011;11956;53.184;8.578;2023-05-10T04:58:36;20.30;;;14.75;;
23555;SDS011;11956;53.184;8.578;2023-05-10T05:01:37;16.08;;;12.77;;
23555;SDS011;11956;53.184;8.578;2023-05-10T05:04:38;15.45;;;13.82;;
23555;SDS011;11956;53.184;8.578;2023-05-10T05:07:39;17.05;;;13.52;;
23555;SDS011;11956;53.184;8.578;2023-05-10T05:10:40;18.90;;;13.95;;
23555;SDS011;11956;53.184;8.578;2023-05-10T05:13:41;19.42;;;13.50;;
23555;SDS011;11956;53.184;8.578;2023-05-10T05:16:41;16.20;;;12.88;;
23555;SDS011;11956;53.184;8.578;2023-05-10T05:19:42;19.70;;;13.98;;
23555;SDS011;11956;53.184;8.578;2023-05-10T05:22:43;17.77;;;13.98;;
23555;SDS011;11956;53.184;8.578;2023-05-10T05:25:44;23.15;;;16.80;;
23555;SDS011;11956;53.184;8.578;2023-05-10T05:28:45;20.20;;;16.13;;
23555;SDS011;11956;53.184;8.578;2023-05-10T05:31:48;19.40;;;15.05;;
23555;SDS011;11956;53.184;8.578;2023-05-10T05:34:49;17.73;;;14.85;;
23555;SDS011;11956;53.184;8.578;2023-05-10T05:37:50;23.00;;;17.95;;
23555;SDS011;11956;53.184;8.578;2023-05-10T05:40:51;23.30;;;15.90;;
23555;SDS011;11956;53.184;8.578;2023-05-10T05:43:52;22.70;;;17.80;;
23555;SDS011;11956;53.184;8.578;2023-05-10T05:46:52;19.80;;;16.70;;
23555;SDS011;11956;53.184;8.578;2023-05-10T05:49:53;19.45;;;15.90;;
23555;SDS011;11956;53.184;8.578;2023-05-10T05:52:55;18.48;;;15.90;;
23555;SDS011;11956;53.184;8.578;2023-05-10T05:55:57;25.30;;;19.27;;
23555;SDS011;11956;53.184;8.578;2023-05-10T05:59:00;18.42;;;16.02;;
23555;SDS011;11956;53.184;8.578;2023-05-10T06:02:01;20.35;;;17.85;;
23555;SDS011;11956;53.184;8.578;2023-05-10T06:05:01;19.60;;;17.38;;
23555;SDS011;11956;53.184;8.578;2023-05-10T06:08:02;23.30;;;18.05;;
23555;SDS011;11956;53.184;8.578;2023-05-10T06:11:04;28.33;;;21.20;;
23555;SDS011;11956;53.184;8.578;2023-05-10T06:14:05;28.20;;;22.70;;
23555;SDS011;11956;53.184;8.578;2023-05-10T06:17:07;21.27;;;18.50;;
23555;SDS011;11956;53.184;8.578;2023-05-10T06:20:08;19.45;;;17.27;;
23555;SDS011;11956;53.184;8.578;2023-05-10T06:23:09;22.85;;;18.70;;
23555;SDS011;11956;53.184;8.578;2023-05-10T06:26:10;27.08;;;20.00;;
23555;SDS011;11956;53.184;8.578;2023-05-10T06:29:11;18.30;;;16.23;;
23555;SDS011;11956;53.184;8.578;2023-05-10T06:32:12;20.02;;;15.93;;
23555;SDS011;11956;53.184;8.578;2023-05-10T06:35:13;18.35;;;16.15;;
23555;SDS011;11956;53.184;8.578;2023-05-10T06:38:13;22.65;;;16.77;;
23555;SDS011;11956;53.184;8.578;2023-05-10T06:41:15;18.75;;;16.75;;
23555;SDS011;11956;53.184;8.578;2023-05-10T06:44:16;24.67;;;19.27;;
23555;SDS011;11956;53.184;8.578;2023-05-10T06:47:17;19.98;;;14.75;;
23555;SDS011;11956;53.184;8.578;2023-05-10T06:50:18;16.77;;;15.07;;
23555;SDS011;11956;53.184;8.578;2023-05-10T06:53:18;16.33;;;14.68;;
23555;SDS011;11956;53.184;8.578;2023-05-10T06:56:19;15.48;;;13.70;;
23555;SDS011;11956;53.184;8.578;2023-05-10T06:59:21;15.57;;;13.70;;
23555;SDS011;11956;53.184;8.578;2023-05-10T07:02:22;14.98;;;13.15;;
23555;SDS011;11956;53.184;8.578;2023-05-10T07:05:23;13.77;;;11.95;;
23555;SDS011;11956;53.184;8.578;2023-05-10T07:08:24;13.68;;;11.82;;
23555;SDS011;11956;53.184;8.578;2023-05-10T07:11:25;10.45;;;9.45;;
23555;SDS011;11956;53.184;8.578;2023-05-10T07:14:26;8.90;;;8.00;;
23555;SDS011;11956;53.184;8.578;2023-05-10T07:17:28;8.85;;;7.95;;
23555;SDS011;11956;53.184;8.578;2023-05-10T07:20:29;8.23;;;7.28;;
23555;SDS011;11956;53.184;8.578;2023-05-10T07:23:29;9.43;;;7.90;;
23555;SDS011;11956;53.184;8.578;2023-05-10T07:26:30;9.25;;;7.95;;
23555;SDS011;11956;53.184;8.578;2023-05-10T07:29:32;11.80;;;8.63;;
23555;SDS011;11956;53.184;8.578;2023-05-10T07:32:33;10.38;;;8.68;;
23555;SDS011;11956;53.184;8.578;2023-05-10T07:35:34;11.55;;;9.55;;
23555;SDS011;11956;53.184;8.578;2023-05-10T07:38:35;14.82;;;10.88;;
23555;SDS011;11956;53.184;8.578;2023-05-10T07:41:36;11.90;;;9.77;;
23555;SDS011;11956;53.184;8.578;2023-05-10T07:44:37;12.07;;;9.70;;
23555;SDS011;11956;53.184;8.578;2023-05-10T07:47:38;14.20;;;11.48;;
23555;SDS011;11956;53.184;8.578;2023-05-10T07:50:39;10.02;;;8.65;;
23555;SDS011;11956;53.184;8.578;2023-05-10T07:53:40;13.45;;;9.20;;
23555;SDS011;11956;53.184;8.578;2023-05-10T07:56:41;10.02;;;8.32;;
23555;SDS011;11956;53.184;8.578;2023-05-10T07:59:45;13.95;;;10.10;;
23555;SDS011;11956;53.184;8.578;2023-05-10T08:02:47;12.05;;;9.25;;
23555;SDS011;11956;53.184;8.578;2023-05-10T08:05:48;8.95;;;7.68;;
23555;SDS011;11956;53.184;8.578;2023-05-10T08:08:49;9.32;;;8.20;;
23555;SDS011;11956;53.184;8.578;2023-05-10T08:11:50;9.35;;;8.32;;
23555;SDS011;11956;53.184;8.578;2023-05-10T08:14:51;7.45;;;6.60;;
23555;SDS011;11956;53.184;8.578;2023-05-10T08:17:52;9.43;;;7.50;;
23555;SDS011;11956;53.184;8.578;2023-05-10T08:20:53;9.95;;;8.27;;
23555;SDS011;11956;53.184;8.578;2023-05-10T08:23:54;9.68;;;8.65;;
23555;SDS011;11956;53.184;8.578;2023-05-10T08:26:55;7.85;;;7.05;;
23555;SDS011;11956;53.184;8.578;2023-05-10T08:29:56;8.43;;;6.88;;
23555;SDS011;11956;53.184;8.578;2023-05-10T08:32:57;6.90;;;6.20;;
23555;SDS011;11956;53.184;8.578;2023-05-10T08:36:00;7.55;;;5.60;;
23555;SDS011;11956;53.184;8.578;2023-05-10T08:39:01;4.88;;;4.38;;
23555;SDS011;11956;53.184;8.578;2023-05-10T08:42:04;4.40;;;4.00;;
23555;SDS011;11956;53.184;8.578;2023-05-10T08:45:07;5.30;;;4.22;;
23555;SDS011;11956;53.184;8.578;2023-05-10T08:48:09;4.20;;;3.72;;
23555;SDS011;11956;53.184;8.578;2023-05-10T08:51:13;3.05;;;2.83;;
23555;SDS011;11956;53.184;8.578;2023-05-10T08:54:22;4.10;;;3.58;;
23555;SDS011;11956;53.184;8.578;2023-05-10T08:57:24;3.83;;;3.20;;
23555;SDS011;11956;53.184;8.578;2023-05-10T09:00:26;4.20;;;3.80;;
23555;SDS011;11956;53.184;8.578;2023-05-10T09:03:27;4.40;;;4.00;;
23555;SDS011;11956;53.184;8.578;2023-05-10T09:06:28;4.07;;;3.22;;
23555;SDS011;11956;53.184;8.578;2023-05-10T09:09:30;3.67;;;2.70;;
23555;SDS011;11956;53.184;8.578;2023-05-10T09:12:32;3.40;;;2.70;;
23555;SDS011;11956;53.184;8.578;2023-05-10T09:15:33;3.03;;;2.72;;
23555;SDS011;11956;53.184;8.578;2023-05-10T09:18:34;3.20;;;2.72;;
23555;SDS011;11956;53.184;8.578;2023-05-10T09:21:35;2.83;;;2.20;;
23555;SDS011;11956;53.184;8.578;2023-05-10T09:24:40;4.55;;;2.35;;
23555;SDS011;11956;53.184;8.578;2023-05-10T09:27:45;2.88;;;2.15;;
23555;SDS011;11956;53.184;8.578;2023-05-10T09:30:52;2.10;;;1.97;;
23555;SDS011;11956;53.184;8.578;2023-05-10T09:33:55;3.78;;;2.17;;
23555;SDS011;11956;53.184;8.578;2023-05-10T09:37:00;1.80;;;1.70;;
23555;SDS011;11956;53.184;8.578;2023-05-10T09:40:04;2.53;;;2.00;;
23555;SDS011;11956;53.184;8.578;2023-05-10T09:43:07;4.72;;;3.92;;
23555;SDS011;11956;53.184;8.578;2023-05-10T09:46:09;6.18;;;3.47;;
23555;SDS011;11956;53.184;8.578;2023-05-10T09:49:14;8.18;;;3.63;;
23555;SDS011;11956;53.184;8.578;2023-05-10T09:52:15;3.45;;;2.75;;
23555;SDS011;11956;53.184;8.578;2023-05-10T09:55:17;6.07;;;3.33;;
23555;SDS011;11956;53.184;8.578;2023-05-10T09:58:20;4.70;;;3.28;;
23555;SDS011;11956;53.184;8.578;2023-05-10T10:01:22;5.53;;;2.95;;
23555;SDS011;11956;53.184;8.578;2023-05-10T10:04:26;3.20;;;2.88;;
23555;SDS011;11956;53.184;8.578;2023-05-10T10:07:28;3.13;;;2.33;;
23555;SDS011;11956;53.184;8.578;2023-05-10T10:10:29;3.90;;;2.42;;
23555;SDS011;11956;53.184;8.578;2023-05-10T10:13:32;3.85;;;3.15;;
23555;SDS011;11956;53.184;8.578;2023-05-10T10:16:33;2.72;;;2.28;;
23555;SDS011;11956;53.184;8.578;2023-05-10T10:19:34;1.85;;;1.70;;
23555;SDS011;11956;53.184;8.578;2023-05-10T10:22:36;3.38;;;2.25;;
23555;SDS011;11956;53.184;8.578;2023-05-10T10:25:37;2.60;;;2.22;;
23555;SDS011;11956;53.184;8.578;2023-05-10T10:28:41;4.13;;;2.05;;
23555;SDS011;11956;53.184;8.578;2023-05-10T10:31:51;2.63;;;2.03;;
23555;SDS011;11956;53.184;8.578;2023-05-10T10:35:07;2.40;;;2.20;;
23555;SDS011;11956;53.184;8.578;2023-05-10T10:38:09;2.75;;;1.90;;
23555;SDS011;11956;53.184;8.578;2023-05-10T10:41:10;2.92;;;2.05;;
23555;SDS011;11956;53.184;8.578;2023-05-10T10:44:37;4.10;;;2.72;;
23555;SDS011;11956;53.184;8.578;2023-05-10T10:47:38;2.78;;;2.50;;
23555;SDS011;11956;53.184;8.578;2023-05-10T10:50:43;3.15;;;2.28;;
23555;SDS011;11956;53.184;8.578;2023-05-10T10:53:47;2.45;;;2.25;;
23555;SDS011;11956;53.184;8.578;2023-05-10T10:57:05;3.80;;;2.53;;
23555;SDS011;11956;53.184;8.578;2023-05-10T11:03:25;4.10;;;2.90;;
23555;SDS011;11956;53.184;8.578;2023-05-10T11:06:29;5.43;;;3.03;;
23555;SDS011;11956;53.184;8.578;2023-05-10T11:09:39;3.35;;;2.33;;
23555;SDS011;11956;53.184;8.578;2023-05-10T11:12:50;6.05;;;5.32;;
23555;SDS011;11956;53.184;8.578;2023-05-10T11:16:14;1.58;;;1.48;;
23555;SDS011;11956;53.184;8.578;2023-05-10T11:19:20;1.90;;;1.40;;
23555;SDS011;11956;53.184;8.578;2023-05-10T11:22:21;2.80;;;1.80;;
23555;SDS011;11956;53.184;8.578;2023-05-10T11:25:26;0.98;;;0.90;;
23555;SDS011;11956;53.184;8.578;2023-05-10T11:28:28;1.75;;;0.90;;
23555;SDS011;11956;53.184;8.578;2023-05-10T11:31:29;1.58;;;0.57;;
23555;SDS011;11956;53.184;8.578;2023-05-10T11:34:30;0.68;;;0.68;;
23555;SDS011;11956;53.184;8.578;2023-05-10T11:37:35;1.55;;;0.60;;
23555;SDS011;11956;53.184;8.578;2023-05-10T11:40:36;0.63;;;0.50;;
23555;SDS011;11956;53.184;8.578;2023-05-10T11:43:38;1.48;;;0.60;;
23555;SDS011;11956;53.184;8.578;2023-05-10T11:46:40;1.25;;;0.30;;
23555;SDS011;11956;53.184;8.578;2023-05-10T11:49:44;1.55;;;0.20;;
23555;SDS011;11956;53.184;8.578;2023-05-10T11:52:49;0.30;;;0.20;;
23555;SDS011;11956;53.184;8.578;2023-05-10T11:55:52;1.17;;;0.10;;
23555;SDS011;11956;53.184;8.578;2023-05-10T11:58:54;2.35;;;0.43;;
23555;SDS011;11956;53.184;8.578;2023-05-10T12:01:56;0.13;;;0.10;;
23555;SDS011;11956;53.184;8.578;2023-05-10T12:04:57;0.30;;;0.30;;
23555;SDS011;11956;53.184;8.578;2023-05-10T12:08:14;0.10;;;0.10;;
23555;SDS011;11956;53.184;8.578;2023-05-10T12:11:17;1.00;;;0.80;;
23555;SDS011;11956;53.184;8.578;2023-05-10T12:14:18;1.60;;;0.40;;
23555;SDS011;11956;53.184;8.578;2023-05-10T12:17:21;1.38;;;0.47;;
23555;SDS011;11956;53.184;8.578;2023-05-10T12:20:22;1.33;;;0.50;;
23555;SDS011;11956;53.184;8.578;2023-05-10T12:23:24;0.70;;;0.70;;
23555;SDS011;11956;53.184;8.578;2023-05-10T12:26:27;0.98;;;0.80;;
23555;SDS011;11956;53.184;8.578;2023-05-10T12:29:29;1.70;;;1.60;;
23555;SDS011;11956;53.184;8.578;2023-05-10T12:32:40;3.20;;;2.28;;
23555;SDS011;11956;53.184;8.578;2023-05-10T12:35:47;1.75;;;1.65;;
23555;SDS011;11956;53.184;8.578;2023-05-10T12:38:51;4.10;;;2.40;;
23555;SDS011;11956;53.184;8.578;2023-05-10T12:42:03;3.00;;;2.28;;
23555;SDS011;11956;53.184;8.578;2023-05-10T12:45:04;3.67;;;3.03;;
23555;SDS011;11956;53.184;8.578;2023-05-10T12:48:06;3.08;;;2.78;;
23555;SDS011;11956;53.184;8.578;2023-05-10T12:51:07;5.57;;;4.90;;
23555;SDS011;11956;53.184;8.578;2023-05-10T12:54:09;7.28;;;5.85;;
23555;SDS011;11956;53.184;8.578;2023-05-10T12:57:10;5.95;;;5.35;;
23555;SDS011;11956;53.184;8.578;2023-05-10T13:00:11;6.28;;;5.68;;
23555;SDS011;11956;53.184;8.578;2023-05-10T13:03:13;7.20;;;5.85;;
23555;SDS011;11956;53.184;8.578;2023-05-10T13:06:15;6.80;;;6.10;;
23555;SDS011;11956;53.184;8.578;2023-05-10T13:09:16;7.20;;;6.50;;
23555;SDS011;11956;53.184;8.578;2023-05-10T13:12:17;7.05;;;6.00;;
23555;SDS011;11956;53.184;8.578;2023-05-10T13:15:18;6.18;;;5.57;;
23555;SDS011;11956;53.184;8.578;2023-05-10T13:18:19;5.85;;;4.65;;
23555;SDS011;11956;53.184;8.578;2023-05-10T13:21:20;5.60;;;5.05;;
23555;SDS011;11956;53.184;8.578;2023-05-10T13:24:21;6.60;;;5.00;;
23555;SDS011;11956;53.184;8.578;2023-05-10T13:27:22;5.20;;;4.70;;
23555;SDS011;11956;53.184;8.578;2023-05-10T13:30:23;6.00;;;4.22;;
23555;SDS011;11956;53.184;8.578;2023-05-10T13:33:24;5.75;;;5.03;;
23555;SDS011;11956;53.184;8.578;2023-05-10T13:36:24;5.32;;;4.82;;
23555;SDS011;11956;53.184;8.578;2023-05-10T13:39:25;6.32;;;4.85;;
23555;SDS011;11956;53.184;8.578;2023-05-10T13:42:26;5.93;;;5.25;;
23555;SDS011;11956;53.184;8.578;2023-05-10T13:45:27;4.55;;;4.15;;
23555;SDS011;11956;53.184;8.578;2023-05-10T13:48:28;4.82;;;4.18;;
23555;SDS011;11956;53.184;8.578;2023-05-10T13:51:29;5.15;;;4.63;;
23555;SDS011;11956;53.184;8.578;2023-05-10T13:54:31;4.40;;;4.00;;
23555;SDS011;11956;53.184;8.578;2023-05-10T13:57:34;4.18;;;3.78;;
23555;SDS011;11956;53.184;8.578;2023-05-10T14:00:36;5.40;;;3.75;;
23555;SDS011;11956;53.184;8.578;2023-05-10T14:03:37;4.05;;;3.55;;
23555;SDS011;11956;53.184;8.578;2023-05-10T14:06:37;5.03;;;3.75;;
23555;SDS011;11956;53.184;8.578;2023-05-10T14:09:38;5.32;;;3.60;;
23555;SDS011;11956;53.184;8.578;2023-05-10T14:12:39;4.95;;;3.50;;
23555;SDS011;11956;53.184;8.578;2023-05-10T14:15:40;4.57;;;3.25;;
23555;SDS011;11956;53.184;8.578;2023-05-10T14:18:41;4.30;;;3.50;;
23555;SDS011;11956;53.184;8.578;2023-05-10T14:21:42;5.22;;;3.58;;
23555;SDS011;11956;53.184;8.578;2023-05-10T14:24:43;4.80;;;3.22;;
23555;SDS011;11956;53.184;8.578;2023-05-10T14:30:47;4.07;;;2.72;;
23555;SDS011;11956;53.184;8.578;2023-05-10T14:33:48;3.50;;;2.50;;
23555;SDS011;11956;53.184;8.578;2023-05-10T14:36:49;3.03;;;2.20;;
23555;SDS011;11956;53.184;8.578;2023-05-10T14:39:50;3.03;;;2.72;;
23555;SDS011;11956;53.184;8.578;2023-05-10T14:42:52;3.55;;;2.70;;
23555;SDS011;11956;53.184;8.578;2023-05-10T14:45:53;4.68;;;2.83;;
23555;SDS011;11956;53.184;8.578;2023-05-10T14:48:54;4.35;;;2.80;;
23555;SDS011;11956;53.184;8.578;2023-05-10T14:51:55;5.65;;;2.97;;
23555;SDS011;11956;53.184;8.578;2023-05-10T14:54:55;3.47;;;3.13;;
23555;SDS011;11956;53.184;8.578;2023-05-10T14:57:57;5.43;;;3.72;;
23555;SDS011;11956;53.184;8.578;2023-05-10T15:00:58;4.22;;;3.00;;
23555;SDS011;11956;53.184;8.578;2023-05-10T15:03:59;3.72;;;2.80;;
23555;SDS011;11956;53.184;8.578;2023-05-10T15:07:00;3.13;;;2.80;;
23555;SDS011;11956;53.184;8.578;2023-05-10T15:10:02;2.90;;;2.30;;
23555;SDS011;11956;53.184;8.578;2023-05-10T15:13:03;3.03;;;2.58;;
23555;SDS011;11956;53.184;8.578;2023-05-10T15:16:04;3.75;;;3.00;;
23555;SDS011;11956;53.184;8.578;2023-05-10T15:19:05;3.00;;;2.80;;
23555;SDS011;11956;53.184;8.578;2023-05-10T15:22:06;3.17;;;2.28;;
23555;SDS011;11956;53.184;8.578;2023-05-10T15:25:07;2.47;;;2.28;;
23555;SDS011;11956;53.184;8.578;2023-05-10T15:28:09;2.80;;;2.40;;
23555;SDS011;11956;53.184;8.578;2023-05-10T15:31:10;2.70;;;2.45;;
23555;SDS011;11956;53.184;8.578;2023-05-10T15:34:11;3.85;;;2.28;;
23555;SDS011;11956;53.184;8.578;2023-05-10T15:37:12;2.78;;;2.58;;
23555;SDS011;11956;53.184;8.578;2023-05-10T15:40:13;2.80;;;2.50;;
23555;SDS011;11956;53.184;8.578;2023-05-10T15:43:13;2.70;;;2.50;;
23555;SDS011;11956;53.184;8.578;2023-05-10T15:46:15;2.78;;;2.42;;
23555;SDS011;11956;53.184;8.578;2023-05-10T15:49:16;2.47;;;2.28;;
23555;SDS011;11956;53.184;8.578;2023-05-10T15:52:17;2.42;;;2.22;;
23555;SDS011;11956;53.184;8.578;2023-05-10T15:55:18;3.00;;;2.60;;
23555;SDS011;11956;53.184;8.578;2023-05-10T15:58:19;3.20;;;2.90;;
23555;SDS011;11956;53.184;8.578;2023-05-10T16:01:20;3.85;;;2.90;;
23555;SDS011;11956;53.184;8.578;2023-05-10T16:04:22;2.70;;;2.50;;
23555;SDS011;11956;53.184;8.578;2023-05-10T16:07:23;4.25;;;3.38;;
23555;SDS011;11956;53.184;8.578;2023-05-10T16:10:23;4.55;;;3.20;;
23555;SDS011;11956;53.184;8.578;2023-05-10T16:13:24;3.92;;;3.45;;
23555;SDS011;11956;53.184;8.578;2023-05-10T16:16:25;4.10;;;3.70;;
23555;SDS011;11956;53.184;8.578;2023-05-10T16:19:26;4.30;;;3.90;;
23555;SDS011;11956;53.184;8.578;2023-05-10T16:22:27;5.28;;;4.50;;
23555;SDS011;11956;53.184;8.578;2023-05-10T16:25:28;4.32;;;3.92;;
23555;SDS011;11956;53.184;8.578;2023-05-10T16:28:30;4.40;;;4.00;;
23555;SDS011;11956;53.184;8.578;2023-05-10T16:31:32;4.63;;;4.22;;
23555;SDS011;11956;53.184;8.578;2023-05-10T16:34:33;4.50;;;4.10;;
23555;SDS011;11956;53.184;8.578;2023-05-10T16:37:33;5.13;;;4.63;;
23555;SDS011;11956;53.184;8.578;2023-05-10T16:40:34;5.32;;;4.38;;
23555;SDS011;11956;53.184;8.578;2023-05-10T16:43:35;5.88;;;5.28;;
23555;SDS011;11956;53.184;8.578;2023-05-10T16:46:36;5.13;;;4.60;;
23555;SDS011;11956;53.184;8.578;2023-05-10T16:49:37;4.70;;;4.30;;
23555;SDS011;11956;53.184;8.578;2023-05-10T16:52:38;10.18;;;5.10;;
23555;SDS011;11956;53.184;8.578;2023-05-10T16:55:39;4.40;;;3.97;;
23555;SDS011;11956;53.184;8.578;2023-05-10T16:58:40;4.68;;;4.22;;
23555;SDS011;11956;53.184;8.578;2023-05-10T17:01:41;4.22;;;3.58;;
23555;SDS011;11956;53.184;8.578;2023-05-10T17:04:42;5.97;;;4.68;;
23555;SDS011;11956;53.184;8.578;2023-05-10T17:07:43;4.57;;;3.10;;
23555;SDS011;11956;53.184;8.578;2023-05-10T17:10:44;3.72;;;3.35;;
23555;SDS011;11956;53.184;8.578;2023-05-10T17:13:45;4.82;;;3.65;;
23555;SDS011;11956;53.184;8.578;2023-05-10T17:16:46;4.00;;;2.97;;
23555;SDS011;11956;53.184;8.578;2023-05-10T17:19:47;3.72;;;2.78;;
23555;SDS011;11956;53.184;8.578;2023-05-10T17:22:48;3.33;;;2.90;;
23555;SDS011;11956;53.184;8.578;2023-05-10T17:25:49;4.68;;;3.55;;
23555;SDS011;11956;53.184;8.578;2023-05-10T17:28:51;4.22;;;3.60;;
23555;SDS011;11956;53.184;8.578;2023-05-10T17:31:53;3.67;;;3.30;;
23555;SDS011;11956;53.184;8.578;2023-05-10T17:34:54;4.07;;;3.58;;
23555;SDS011;11956;53.184;8.578;2023-05-10T17:37:55;4.57;;;4.07;;
23555;SDS011;11956;53.184;8.578;2023-05-10T17:40:56;7.68;;;4.97;;
23555;SDS011;11956;53.184;8.578;2023-05-10T17:43:57;4.63;;;4.22;;
23555;SDS011;11956;53.184;8.578;2023-05-10T17:46:58;5.72;;;4.60;;
23555;SDS011;11956;53.184;8.578;2023-05-10T17:49:59;5.40;;;4.28;;
23555;SDS011;11956;53.184;8.578;2023-05-10T17:53:00;5.15;;;4.65;;
23555;SDS011;11956;53.184;8.578;2023-05-10T17:56:01;7.40;;;5.38;;
23555;SDS011;11956;53.184;8.578;2023-05-10T17:59:03;4.90;;;4.40;;
23555;SDS011;11956;53.184;8.578;2023-05-10T18:02:04;5.20;;;4.70;;
23555;SDS011;11956;53.184;8.578;2023-05-10T18:05:05;5.03;;;4.32;;
23555;SDS011;11956;53.184;8.578;2023-05-10T18:08:07;6.50;;;5.07;;
23555;SDS011;11956;53.184;8.578;2023-05-10T18:11:08;4.93;;;4.40;;
23555;SDS011;11956;53.184;8.578;2023-05-10T18:14:09;5.50;;;4.00;;
23555;SDS011;11956;53.184;8.578;2023-05-10T18:17:10;5.68;;;4.47;;
23555;SDS011;11956;53.184;8.578;2023-05-10T18:20:11;4.07;;;3.67;;
23555;SDS011;11956;53.184;8.578;2023-05-10T18:23:12;6.40;;;3.83;;
23555;SDS011;11956;53.184;8.578;2023-05-10T18:26:14;4.82;;;3.67;;
23555;SDS011;11956;53.184;8.578;2023-05-10T18:29:16;4.57;;;3.60;;